sensor_id;sensor_type;location;lat;lon;timestamp;P1;durP1;ratioP1;P2;durP2;ratioP2
24961;SDS011;12992;50.884;13.668;2023-01-04T00:02:13;3.58;;;1.40;;
24961;SDS011;12992;50.884;13.668;2023-01-04T00:04:39;2.05;;;1.40;;
24961;SDS011;12992;50.884;13.668;2023-01-04T00:07:04;2.55;;;1.42;;
24961;SDS011;12992;50.884;13.668;2023-01-04T00:09:29;1.98;;;1.15;;
24961;SDS011;12992;50.884;13.668;2023-01-04T00:11:55;1.70;;;1.33;;
24961;SDS011;12992;50.884;13.668;2023-01-04T00:14:20;3.03;;;1.20;;
24961;SDS011;12992;50.884;13.668;2023-01-04T00:16:45;2.55;;;1.20;;
24961;SDS011;12992;50.884;13.668;2023-01-04T00:19:11;3.55;;;1.30;;
24961;SDS011;12992;50.884;13.668;2023-01-04T00:21:37;2.60;;;1.25;;
24961;SDS011;12992;50.884;13.668;2023-01-04T00:24:02;3.50;;;1.70;;
24961;SDS011;12992;50.884;13.668;2023-01-04T00:26:31;1.20;;;1.10;;
24961;SDS011;12992;50.884;13.668;2023-01-04T00:28:59;2.75;;;1.30;;
24961;SDS011;12992;50.884;13.668;2023-01-04T00:31:29;2.78;;;1.20;;
24961;SDS011;12992;50.884;13.668;2023-01-04T00:33:56;3.90;;;1.33;;
24961;SDS011;12992;50.884;13.668;2023-01-04T00:36:23;1.58;;;1.05;;
24961;SDS011;12992;50.884;13.668;2023-01-04T00:38:49;3.80;;;1.30;;
24961;SDS011;12992;50.884;13.668;2023-01-04T00:41:31;1.50;;;1.15;;
24961;SDS011;12992;50.884;13.668;2023-01-04T00:44:15;1.17;;;1.00;;
24961;SDS011;12992;50.884;13.668;2023-01-04T00:46:41;2.08;;;1.45;;
24961;SDS011;12992;50.884;13.668;2023-01-04T00:49:08;1.90;;;1.40;;
24961;SDS011;12992;50.884;13.668;2023-01-04T00:51:36;2.47;;;1.30;;
24961;SDS011;12992;50.884;13.668;2023-01-04T00:54:03;3.92;;;1.30;;
24961;SDS011;12992;50.884;13.668;2023-01-04T00:56:31;2.03;;;1.10;;
24961;SDS011;12992;50.884;13.668;2023-01-04T00:58:58;2.40;;;1.10;;
24961;SDS011;12992;50.884;13.668;2023-01-04T01:01:26;1.83;;;1.30;;
24961;SDS011;12992;50.884;13.668;2023-01-04T01:03:53;2.10;;;1.35;;
24961;SDS011;12992;50.884;13.668;2023-01-04T01:06:20;2.55;;;1.40;;
24961;SDS011;12992;50.884;13.668;2023-01-04T01:08:46;2.50;;;1.30;;
24961;SDS011;12992;50.884;13.668;2023-01-04T01:11:11;3.10;;;1.27;;
24961;SDS011;12992;50.884;13.668;2023-01-04T01:13:37;3.45;;;1.23;;
24961;SDS011;12992;50.884;13.668;2023-01-04T01:16:07;3.05;;;1.20;;
24961;SDS011;12992;50.884;13.668;2023-01-04T01:18:35;3.30;;;1.27;;
24961;SDS011;12992;50.884;13.668;2023-01-04T01:21:08;1.23;;;1.10;;
24961;SDS011;12992;50.884;13.668;2023-01-04T01:23:36;2.70;;;1.25;;
24961;SDS011;12992;50.884;13.668;2023-01-04T01:26:03;1.20;;;1.08;;
24961;SDS011;12992;50.884;13.668;2023-01-04T01:28:30;2.15;;;1.10;;
24961;SDS011;12992;50.884;13.668;2023-01-04T01:30:57;2.55;;;1.10;;
24961;SDS011;12992;50.884;13.668;2023-01-04T01:33:24;1.90;;;1.05;;
24961;SDS011;12992;50.884;13.668;2023-01-04T01:35:50;3.33;;;1.15;;
24961;SDS011;12992;50.884;13.668;2023-01-04T01:38:16;3.60;;;1.25;;
24961;SDS011;12992;50.884;13.668;2023-01-04T01:40:41;2.03;;;1.20;;
24961;SDS011;12992;50.884;13.668;2023-01-04T01:43:17;1.50;;;1.20;;
24961;SDS011;12992;50.884;13.668;2023-01-04T01:45:44;1.95;;;1.30;;
24961;SDS011;12992;50.884;13.668;2023-01-04T01:48:14;2.00;;;1.38;;
24961;SDS011;12992;50.884;13.668;2023-01-04T01:50:46;2.28;;;1.30;;
24961;SDS011;12992;50.884;13.668;2023-01-04T01:53:15;2.23;;;1.37;;
24961;SDS011;12992;50.884;13.668;2023-01-04T01:55:41;2.97;;;1.40;;
24961;SDS011;12992;50.884;13.668;2023-01-04T01:58:09;1.27;;;1.17;;
24961;SDS011;12992;50.884;13.668;2023-01-04T02:00:42;3.88;;;1.27;;
24961;SDS011;12992;50.884;13.668;2023-01-04T02:03:12;1.83;;;1.30;;
24961;SDS011;12992;50.884;13.668;2023-01-04T02:05:41;3.55;;;1.23;;
24961;SDS011;12992;50.884;13.668;2023-01-04T02:08:08;2.42;;;1.10;;
24961;SDS011;12992;50.884;13.668;2023-01-04T02:10:34;1.50;;;1.10;;
24961;SDS011;12992;50.884;13.668;2023-01-04T02:13:01;1.98;;;1.27;;
24961;SDS011;12992;50.884;13.668;2023-01-04T02:15:34;2.05;;;1.30;;
24961;SDS011;12992;50.884;13.668;2023-01-04T02:18:09;3.00;;;1.13;;
24961;SDS011;12992;50.884;13.668;2023-01-04T02:20:43;1.35;;;1.10;;
24961;SDS011;12992;50.884;13.668;2023-01-04T02:31:35;1.88;;;1.10;;
24961;SDS011;12992;50.884;13.668;2023-01-04T02:37:35;1.55;;;1.00;;
24961;SDS011;12992;50.884;13.668;2023-01-04T02:43:22;2.40;;;1.00;;
24961;SDS011;12992;50.884;13.668;2023-01-04T02:46:28;1.73;;;1.30;;
24961;SDS011;12992;50.884;13.668;2023-01-04T02:48:59;2.13;;;1.10;;
24961;SDS011;12992;50.884;13.668;2023-01-04T02:51:44;2.80;;;1.00;;
24961;SDS011;12992;50.884;13.668;2023-01-04T02:54:11;3.25;;;1.20;;
24961;SDS011;12992;50.884;13.668;2023-01-04T03:02:22;2.88;;;1.08;;
24961;SDS011;12992;50.884;13.668;2023-01-04T03:06:05;1.35;;;1.00;;
24961;SDS011;12992;50.884;13.668;2023-01-04T03:08:33;2.35;;;1.27;;
24961;SDS011;12992;50.884;13.668;2023-01-04T03:11:04;1.40;;;1.10;;
24961;SDS011;12992;50.884;13.668;2023-01-04T03:13:56;1.20;;;1.10;;
24961;SDS011;12992;50.884;13.668;2023-01-04T03:16:26;1.77;;;1.30;;
24961;SDS011;12992;50.884;13.668;2023-01-04T03:18:55;2.53;;;1.48;;
24961;SDS011;12992;50.884;13.668;2023-01-04T03:21:22;1.40;;;1.00;;
24961;SDS011;12992;50.884;13.668;2023-01-04T03:23:51;3.13;;;1.40;;
24961;SDS011;12992;50.884;13.668;2023-01-04T03:26:43;2.50;;;1.45;;
24961;SDS011;12992;50.884;13.668;2023-01-04T03:29:32;3.70;;;1.58;;
24961;SDS011;12992;50.884;13.668;2023-01-04T03:32:29;5.78;;;1.40;;
24961;SDS011;12992;50.884;13.668;2023-01-04T03:35:19;2.45;;;1.50;;
24961;SDS011;12992;50.884;13.668;2023-01-04T03:41:15;1.60;;;1.50;;
24961;SDS011;12992;50.884;13.668;2023-01-04T03:44:15;3.95;;;1.50;;
24961;SDS011;12992;50.884;13.668;2023-01-04T03:47:48;2.40;;;1.70;;
24961;SDS011;12992;50.884;13.668;2023-01-04T03:50:43;3.50;;;1.60;;
24961;SDS011;12992;50.884;13.668;2023-01-04T03:53:12;4.67;;;1.73;;
24961;SDS011;12992;50.884;13.668;2023-01-04T03:55:38;1.60;;;1.50;;
24961;SDS011;12992;50.884;13.668;2023-01-04T03:58:06;2.35;;;1.45;;
24961;SDS011;12992;50.884;13.668;2023-01-04T04:00:32;3.92;;;1.42;;
24961;SDS011;12992;50.884;13.668;2023-01-04T04:02:58;3.78;;;1.60;;
24961;SDS011;12992;50.884;13.668;2023-01-04T04:05:31;2.13;;;1.60;;
24961;SDS011;12992;50.884;13.668;2023-01-04T04:08:20;2.30;;;1.20;;
24961;SDS011;12992;50.884;13.668;2023-01-04T04:10:51;1.63;;;1.48;;
24961;SDS011;12992;50.884;13.668;2023-01-04T04:13:16;3.85;;;1.58;;
24961;SDS011;12992;50.884;13.668;2023-01-04T04:15:41;2.65;;;1.40;;
24961;SDS011;12992;50.884;13.668;2023-01-04T04:18:07;2.50;;;1.50;;
24961;SDS011;12992;50.884;13.668;2023-01-04T04:20:32;2.55;;;1.50;;
24961;SDS011;12992;50.884;13.668;2023-01-04T04:22:58;2.95;;;1.65;;
24961;SDS011;12992;50.884;13.668;2023-01-04T04:25:23;2.15;;;1.48;;
24961;SDS011;12992;50.884;13.668;2023-01-04T04:27:48;1.73;;;1.42;;
24961;SDS011;12992;50.884;13.668;2023-01-04T04:30:14;1.55;;;1.40;;
24961;SDS011;12992;50.884;13.668;2023-01-04T04:32:39;1.83;;;1.50;;
24961;SDS011;12992;50.884;13.668;2023-01-04T04:35:05;4.13;;;1.70;;
24961;SDS011;12992;50.884;13.668;2023-01-04T04:37:30;3.08;;;1.77;;
24961;SDS011;12992;50.884;13.668;2023-01-04T04:39:56;2.30;;;1.80;;
24961;SDS011;12992;50.884;13.668;2023-01-04T04:42:22;1.52;;;1.42;;
24961;SDS011;12992;50.884;13.668;2023-01-04T04:44:47;1.92;;;1.60;;
24961;SDS011;12992;50.884;13.668;2023-01-04T04:47:13;3.42;;;1.73;;
24961;SDS011;12992;50.884;13.668;2023-01-04T04:49:38;3.22;;;1.67;;
24961;SDS011;12992;50.884;13.668;2023-01-04T04:52:03;4.25;;;1.70;;
24961;SDS011;12992;50.884;13.668;2023-01-04T04:54:29;2.35;;;1.60;;
24961;SDS011;12992;50.884;13.668;2023-01-04T04:56:54;1.83;;;1.45;;
24961;SDS011;12992;50.884;13.668;2023-01-04T04:59:19;1.70;;;1.40;;
24961;SDS011;12992;50.884;13.668;2023-01-04T05:01:45;2.70;;;1.73;;
24961;SDS011;12992;50.884;13.668;2023-01-04T05:04:10;3.35;;;1.67;;
24961;SDS011;12992;50.884;13.668;2023-01-04T05:06:40;3.95;;;1.60;;
24961;SDS011;12992;50.884;13.668;2023-01-04T05:09:09;3.60;;;1.58;;
24961;SDS011;12992;50.884;13.668;2023-01-04T05:11:35;2.25;;;1.60;;
24961;SDS011;12992;50.884;13.668;2023-01-04T05:14:19;4.25;;;1.70;;
24961;SDS011;12992;50.884;13.668;2023-01-04T05:16:44;2.75;;;1.52;;
24961;SDS011;12992;50.884;13.668;2023-01-04T05:19:09;1.90;;;1.30;;
24961;SDS011;12992;50.884;13.668;2023-01-04T05:21:35;3.13;;;1.60;;
24961;SDS011;12992;50.884;13.668;2023-01-04T05:24:00;3.72;;;1.77;;
24961;SDS011;12992;50.884;13.668;2023-01-04T05:26:25;2.78;;;1.60;;
24961;SDS011;12992;50.884;13.668;2023-01-04T05:28:51;3.05;;;1.58;;
24961;SDS011;12992;50.884;13.668;2023-01-04T05:31:16;3.40;;;1.48;;
24961;SDS011;12992;50.884;13.668;2023-01-04T05:33:41;3.83;;;1.65;;
24961;SDS011;12992;50.884;13.668;2023-01-04T05:36:07;3.03;;;1.73;;
24961;SDS011;12992;50.884;13.668;2023-01-04T05:38:32;2.30;;;1.60;;
24961;SDS011;12992;50.884;13.668;2023-01-04T05:40:58;2.20;;;1.23;;
24961;SDS011;12992;50.884;13.668;2023-01-04T05:43:24;2.25;;;1.50;;
24961;SDS011;12992;50.884;13.668;2023-01-04T05:45:50;3.55;;;1.35;;
24961;SDS011;12992;50.884;13.668;2023-01-04T05:48:18;1.40;;;1.30;;
24961;SDS011;12992;50.884;13.668;2023-01-04T05:50:43;3.58;;;1.50;;
24961;SDS011;12992;50.884;13.668;2023-01-04T05:53:10;1.83;;;1.45;;
24961;SDS011;12992;50.884;13.668;2023-01-04T05:55:36;2.95;;;1.25;;
24961;SDS011;12992;50.884;13.668;2023-01-04T05:58:02;1.75;;;1.10;;
24961;SDS011;12992;50.884;13.668;2023-01-04T06:00:27;1.65;;;1.20;;
24961;SDS011;12992;50.884;13.668;2023-01-04T06:02:53;2.63;;;1.23;;
24961;SDS011;12992;50.884;13.668;2023-01-04T06:05:19;1.80;;;1.40;;
24961;SDS011;12992;50.884;13.668;2023-01-04T06:07:45;2.08;;;1.20;;
24961;SDS011;12992;50.884;13.668;2023-01-04T06:10:11;3.33;;;1.48;;
24961;SDS011;12992;50.884;13.668;2023-01-04T06:12:37;2.05;;;1.40;;
24961;SDS011;12992;50.884;13.668;2023-01-04T06:15:02;1.40;;;1.25;;
24961;SDS011;12992;50.884;13.668;2023-01-04T06:17:28;3.35;;;1.33;;
24961;SDS011;12992;50.884;13.668;2023-01-04T06:19:53;1.45;;;1.30;;
24961;SDS011;12992;50.884;13.668;2023-01-04T06:22:19;1.80;;;1.50;;
24961;SDS011;12992;50.884;13.668;2023-01-04T06:24:44;2.85;;;1.20;;
24961;SDS011;12992;50.884;13.668;2023-01-04T06:27:10;1.20;;;1.10;;
24961;SDS011;12992;50.884;13.668;2023-01-04T06:29:35;2.90;;;1.55;;
24961;SDS011;12992;50.884;13.668;2023-01-04T06:32:00;2.92;;;1.83;;
24961;SDS011;12992;50.884;13.668;2023-01-04T06:34:26;3.05;;;1.77;;
24961;SDS011;12992;50.884;13.668;2023-01-04T06:36:51;2.55;;;1.75;;
24961;SDS011;12992;50.884;13.668;2023-01-04T06:39:16;3.00;;;1.75;;
24961;SDS011;12992;50.884;13.668;2023-01-04T06:41:41;2.67;;;1.50;;
24961;SDS011;12992;50.884;13.668;2023-01-04T06:44:07;3.42;;;1.90;;
24961;SDS011;12992;50.884;13.668;2023-01-04T06:46:32;2.50;;;1.90;;
24961;SDS011;12992;50.884;13.668;2023-01-04T06:48:57;5.95;;;2.33;;
24961;SDS011;12992;50.884;13.668;2023-01-04T06:51:23;2.30;;;1.70;;
24961;SDS011;12992;50.884;13.668;2023-01-04T06:53:48;2.33;;;1.58;;
24961;SDS011;12992;50.884;13.668;2023-01-04T06:56:14;3.20;;;1.85;;
24961;SDS011;12992;50.884;13.668;2023-01-04T06:58:39;3.10;;;1.98;;
24961;SDS011;12992;50.884;13.668;2023-01-04T07:01:05;2.08;;;1.50;;
24961;SDS011;12992;50.884;13.668;2023-01-04T07:03:31;2.95;;;1.73;;
24961;SDS011;12992;50.884;13.668;2023-01-04T07:05:57;1.50;;;1.40;;
24961;SDS011;12992;50.884;13.668;2023-01-04T07:08:22;2.33;;;1.77;;
24961;SDS011;12992;50.884;13.668;2023-01-04T07:10:48;1.63;;;1.52;;
24961;SDS011;12992;50.884;13.668;2023-01-04T07:13:13;3.10;;;1.60;;
24961;SDS011;12992;50.884;13.668;2023-01-04T07:15:39;3.08;;;1.42;;
24961;SDS011;12992;50.884;13.668;2023-01-04T07:18:04;1.85;;;1.13;;
24961;SDS011;12992;50.884;13.668;2023-01-04T07:20:30;1.27;;;1.15;;
24961;SDS011;12992;50.884;13.668;2023-01-04T07:22:55;1.27;;;1.00;;
24961;SDS011;12992;50.884;13.668;2023-01-04T07:25:20;1.92;;;0.98;;
24961;SDS011;12992;50.884;13.668;2023-01-04T07:27:50;1.75;;;1.20;;
24961;SDS011;12992;50.884;13.668;2023-01-04T07:30:16;2.45;;;1.20;;
24961;SDS011;12992;50.884;13.668;2023-01-04T07:32:42;2.00;;;0.98;;
24961;SDS011;12992;50.884;13.668;2023-01-04T07:35:07;1.60;;;1.00;;
24961;SDS011;12992;50.884;13.668;2023-01-04T07:37:32;1.63;;;1.20;;
24961;SDS011;12992;50.884;13.668;2023-01-04T07:39:58;2.08;;;1.10;;
24961;SDS011;12992;50.884;13.668;2023-01-04T07:42:23;3.53;;;1.50;;
24961;SDS011;12992;50.884;13.668;2023-01-04T07:44:49;2.53;;;1.38;;
24961;SDS011;12992;50.884;13.668;2023-01-04T07:47:14;1.48;;;1.25;;
24961;SDS011;12992;50.884;13.668;2023-01-04T07:49:39;2.13;;;1.52;;
24961;SDS011;12992;50.884;13.668;2023-01-04T07:52:05;2.55;;;1.40;;
24961;SDS011;12992;50.884;13.668;2023-01-04T07:54:30;2.42;;;1.42;;
24961;SDS011;12992;50.884;13.668;2023-01-04T07:56:55;2.10;;;1.40;;
24961;SDS011;12992;50.884;13.668;2023-01-04T07:59:21;3.63;;;1.80;;
24961;SDS011;12992;50.884;13.668;2023-01-04T08:01:46;1.77;;;1.67;;
24961;SDS011;12992;50.884;13.668;2023-01-04T08:04:13;2.15;;;1.60;;
24961;SDS011;12992;50.884;13.668;2023-01-04T08:06:39;2.10;;;1.30;;
24961;SDS011;12992;50.884;13.668;2023-01-04T08:09:06;2.65;;;1.58;;
24961;SDS011;12992;50.884;13.668;2023-01-04T08:11:31;2.05;;;1.73;;
24961;SDS011;12992;50.884;13.668;2023-01-04T08:13:57;1.85;;;1.60;;
24961;SDS011;12992;50.884;13.668;2023-01-04T08:16:30;1.55;;;1.25;;
24961;SDS011;12992;50.884;13.668;2023-01-04T08:18:58;1.48;;;1.20;;
24961;SDS011;12992;50.884;13.668;2023-01-04T08:21:24;1.50;;;1.00;;
24961;SDS011;12992;50.884;13.668;2023-01-04T08:23:52;1.13;;;1.00;;
24961;SDS011;12992;50.884;13.668;2023-01-04T08:26:17;1.73;;;1.10;;
24961;SDS011;12992;50.884;13.668;2023-01-04T08:28:44;1.70;;;1.40;;
24961;SDS011;12992;50.884;13.668;2023-01-04T08:31:11;2.10;;;1.50;;
24961;SDS011;12992;50.884;13.668;2023-01-04T08:33:43;1.40;;;1.20;;
24961;SDS011;12992;50.884;13.668;2023-01-04T08:36:10;1.80;;;1.30;;
24961;SDS011;12992;50.884;13.668;2023-01-04T08:38:43;3.58;;;1.50;;
24961;SDS011;12992;50.884;13.668;2023-01-04T08:41:09;1.67;;;1.40;;
24961;SDS011;12992;50.884;13.668;2023-01-04T08:43:34;1.20;;;1.10;;
24961;SDS011;12992;50.884;13.668;2023-01-04T08:46:03;1.48;;;1.30;;
24961;SDS011;12992;50.884;13.668;2023-01-04T08:48:29;1.48;;;1.38;;
24961;SDS011;12992;50.884;13.668;2023-01-04T08:51:03;1.10;;;1.00;;
24961;SDS011;12992;50.884;13.668;2023-01-04T08:53:30;1.98;;;0.98;;
24961;SDS011;12992;50.884;13.668;2023-01-04T08:55:56;1.33;;;1.05;;
24961;SDS011;12992;50.884;13.668;2023-01-04T08:58:25;1.10;;;0.98;;
24961;SDS011;12992;50.884;13.668;2023-01-04T09:00:51;1.20;;;1.10;;
24961;SDS011;12992;50.884;13.668;2023-01-04T09:03:17;1.83;;;1.20;;
24961;SDS011;12992;50.884;13.668;2023-01-04T09:05:42;1.95;;;1.30;;
24961;SDS011;12992;50.884;13.668;2023-01-04T09:08:08;1.30;;;1.20;;
24961;SDS011;12992;50.884;13.668;2023-01-04T09:10:35;2.47;;;1.00;;
24961;SDS011;12992;50.884;13.668;2023-01-04T09:13:01;1.67;;;1.02;;
24961;SDS011;12992;50.884;13.668;2023-01-04T09:15:26;1.35;;;1.20;;
24961;SDS011;12992;50.884;13.668;2023-01-04T09:17:52;1.40;;;1.10;;
24961;SDS011;12992;50.884;13.668;2023-01-04T09:20:17;2.58;;;1.10;;
24961;SDS011;12992;50.884;13.668;2023-01-04T09:22:42;0.95;;;0.90;;
24961;SDS011;12992;50.884;13.668;2023-01-04T09:25:08;1.30;;;1.10;;
24961;SDS011;12992;50.884;13.668;2023-01-04T09:27:33;1.67;;;1.20;;
24961;SDS011;12992;50.884;13.668;2023-01-04T09:29:58;1.15;;;1.05;;
24961;SDS011;12992;50.884;13.668;2023-01-04T09:32:24;2.40;;;1.20;;
24961;SDS011;12992;50.884;13.668;2023-01-04T09:34:49;1.20;;;1.10;;
24961;SDS011;12992;50.884;13.668;2023-01-04T09:37:14;1.30;;;1.00;;
24961;SDS011;12992;50.884;13.668;2023-01-04T09:39:40;1.95;;;1.20;;
24961;SDS011;12992;50.884;13.668;2023-01-04T09:42:21;2.53;;;1.20;;
24961;SDS011;12992;50.884;13.668;2023-01-04T09:44:53;1.38;;;1.27;;
24961;SDS011;12992;50.884;13.668;2023-01-04T09:50:23;2.28;;;1.15;;
24961;SDS011;12992;50.884;13.668;2023-01-04T09:53:05;1.33;;;1.00;;
24961;SDS011;12992;50.884;13.668;2023-01-04T09:55:38;3.00;;;1.17;;
24961;SDS011;12992;50.884;13.668;2023-01-04T09:58:21;0.88;;;0.88;;
24961;SDS011;12992;50.884;13.668;2023-01-04T10:00:54;1.98;;;1.10;;
24961;SDS011;12992;50.884;13.668;2023-01-04T10:03:33;3.17;;;1.92;;
24961;SDS011;12992;50.884;13.668;2023-01-04T10:06:00;9.00;;;4.00;;
24961;SDS011;12992;50.884;13.668;2023-01-04T10:08:28;11.73;;;5.47;;
24961;SDS011;12992;50.884;13.668;2023-01-04T10:19:47;6.60;;;3.22;;
24961;SDS011;12992;50.884;13.668;2023-01-04T10:22:30;3.63;;;1.65;;
24961;SDS011;12992;50.884;13.668;2023-01-04T10:25:17;8.40;;;2.90;;
24961;SDS011;12992;50.884;13.668;2023-01-04T10:28:05;4.65;;;2.20;;
24961;SDS011;12992;50.884;13.668;2023-01-04T10:33:45;11.48;;;4.28;;
24961;SDS011;12992;50.884;13.668;2023-01-04T10:36:13;4.88;;;2.63;;
24961;SDS011;12992;50.884;13.668;2023-01-04T10:38:42;4.82;;;2.60;;
24961;SDS011;12992;50.884;13.668;2023-01-04T10:41:09;4.53;;;1.90;;
24961;SDS011;12992;50.884;13.668;2023-01-04T10:46:16;3.13;;;1.88;;
24961;SDS011;12992;50.884;13.668;2023-01-04T10:51:43;2.40;;;0.85;;
24961;SDS011;12992;50.884;13.668;2023-01-04T10:54:30;1.08;;;0.70;;
24961;SDS011;12992;50.884;13.668;2023-01-04T10:59:37;1.10;;;0.80;;
24961;SDS011;12992;50.884;13.668;2023-01-04T11:02:14;0.65;;;0.65;;
24961;SDS011;12992;50.884;13.668;2023-01-04T11:04:50;1.02;;;0.85;;
24961;SDS011;12992;50.884;13.668;2023-01-04T11:07:24;0.73;;;0.70;;
24961;SDS011;12992;50.884;13.668;2023-01-04T11:10:00;1.17;;;0.95;;
24961;SDS011;12992;50.884;13.668;2023-01-04T11:12:30;1.27;;;0.80;;
24961;SDS011;12992;50.884;13.668;2023-01-04T11:14:56;1.00;;;0.75;;
24961;SDS011;12992;50.884;13.668;2023-01-04T11:17:21;1.90;;;0.90;;
24961;SDS011;12992;50.884;13.668;2023-01-04T11:19:48;1.30;;;1.17;;
24961;SDS011;12992;50.884;13.668;2023-01-04T11:22:19;0.88;;;0.70;;
24961;SDS011;12992;50.884;13.668;2023-01-04T11:24:46;1.83;;;0.60;;
24961;SDS011;12992;50.884;13.668;2023-01-04T11:27:20;1.65;;;0.70;;
24961;SDS011;12992;50.884;13.668;2023-01-04T11:29:59;0.60;;;0.60;;
24961;SDS011;12992;50.884;13.668;2023-01-04T11:35:08;1.13;;;0.80;;
24961;SDS011;12992;50.884;13.668;2023-01-04T11:37:37;1.52;;;1.00;;
24961;SDS011;12992;50.884;13.668;2023-01-04T11:40:12;1.88;;;0.88;;
24961;SDS011;12992;50.884;13.668;2023-01-04T11:42:45;2.10;;;1.27;;
24961;SDS011;12992;50.884;13.668;2023-01-04T11:45:21;1.42;;;0.85;;
24961;SDS011;12992;50.884;13.668;2023-01-04T11:47:53;1.42;;;1.05;;
24961;SDS011;12992;50.884;13.668;2023-01-04T11:50:32;2.78;;;1.10;;
24961;SDS011;12992;50.884;13.668;2023-01-04T11:52:58;1.83;;;1.10;;
24961;SDS011;12992;50.884;13.668;2023-01-04T11:55:24;0.80;;;0.80;;
24961;SDS011;12992;50.884;13.668;2023-01-04T11:58:10;1.23;;;1.00;;
24961;SDS011;12992;50.884;13.668;2023-01-04T12:00:47;1.60;;;1.20;;
24961;SDS011;12992;50.884;13.668;2023-01-04T12:03:31;1.63;;;1.15;;
24961;SDS011;12992;50.884;13.668;2023-01-04T12:06:00;1.63;;;0.90;;
24961;SDS011;12992;50.884;13.668;2023-01-04T12:11:01;1.05;;;0.82;;
24961;SDS011;12992;50.884;13.668;2023-01-04T12:13:29;1.30;;;0.85;;
24961;SDS011;12992;50.884;13.668;2023-01-04T12:18:46;4.35;;;1.33;;
24961;SDS011;12992;50.884;13.668;2023-01-04T12:21:13;1.30;;;1.00;;
24961;SDS011;12992;50.884;13.668;2023-01-04T12:23:43;1.73;;;0.98;;
24961;SDS011;12992;50.884;13.668;2023-01-04T12:26:09;1.33;;;1.05;;
24961;SDS011;12992;50.884;13.668;2023-01-04T12:28:37;1.85;;;0.80;;
24961;SDS011;12992;50.884;13.668;2023-01-04T12:33:46;1.30;;;0.82;;
24961;SDS011;12992;50.884;13.668;2023-01-04T12:36:16;0.80;;;0.80;;
24961;SDS011;12992;50.884;13.668;2023-01-04T12:43:57;2.22;;;1.20;;
24961;SDS011;12992;50.884;13.668;2023-01-04T12:52:17;1.25;;;0.80;;
24961;SDS011;12992;50.884;13.668;2023-01-04T12:54:45;1.17;;;0.82;;
24961;SDS011;12992;50.884;13.668;2023-01-04T13:00:06;1.35;;;1.00;;
24961;SDS011;12992;50.884;13.668;2023-01-04T13:02:37;1.25;;;0.80;;
24961;SDS011;12992;50.884;13.668;2023-01-04T13:07:43;0.93;;;0.77;;
24961;SDS011;12992;50.884;13.668;2023-01-04T13:10:24;1.25;;;0.90;;
24961;SDS011;12992;50.884;13.668;2023-01-04T13:13:06;0.82;;;0.80;;
24961;SDS011;12992;50.884;13.668;2023-01-04T13:16:09;1.05;;;0.95;;
24961;SDS011;12992;50.884;13.668;2023-01-04T13:18:47;2.55;;;0.93;;
24961;SDS011;12992;50.884;13.668;2023-01-04T13:21:24;0.85;;;0.77;;
24961;SDS011;12992;50.884;13.668;2023-01-04T13:26:46;0.90;;;0.75;;
24961;SDS011;12992;50.884;13.668;2023-01-04T13:29:25;1.38;;;0.90;;
24961;SDS011;12992;50.884;13.668;2023-01-04T13:31:58;1.63;;;0.60;;
24961;SDS011;12992;50.884;13.668;2023-01-04T13:34:35;1.52;;;0.88;;
24961;SDS011;12992;50.884;13.668;2023-01-04T13:39:34;0.82;;;0.82;;
24961;SDS011;12992;50.884;13.668;2023-01-04T13:42:02;0.90;;;0.80;;
24961;SDS011;12992;50.884;13.668;2023-01-04T13:46:53;1.10;;;0.70;;
24961;SDS011;12992;50.884;13.668;2023-01-04T13:49:20;0.65;;;0.65;;
24961;SDS011;12992;50.884;13.668;2023-01-04T13:51:47;0.95;;;0.65;;
24961;SDS011;12992;50.884;13.668;2023-01-04T13:54:19;0.63;;;0.60;;
24961;SDS011;12992;50.884;13.668;2023-01-04T13:56:46;1.08;;;0.65;;
24961;SDS011;12992;50.884;13.668;2023-01-04T13:59:12;1.05;;;0.80;;
24961;SDS011;12992;50.884;13.668;2023-01-04T14:01:43;1.23;;;0.70;;
24961;SDS011;12992;50.884;13.668;2023-01-04T14:04:13;0.82;;;0.55;;
24961;SDS011;12992;50.884;13.668;2023-01-04T14:06:46;1.50;;;0.70;;
24961;SDS011;12992;50.884;13.668;2023-01-04T14:11:45;0.55;;;0.52;;
24961;SDS011;12992;50.884;13.668;2023-01-04T14:14:31;0.65;;;0.60;;
24961;SDS011;12992;50.884;13.668;2023-01-04T14:19:41;1.10;;;0.82;;
24961;SDS011;12992;50.884;13.668;2023-01-04T14:24:47;0.50;;;0.50;;
24961;SDS011;12992;50.884;13.668;2023-01-04T14:32:55;0.50;;;0.50;;
24961;SDS011;12992;50.884;13.668;2023-01-04T14:35:23;0.82;;;0.70;;
24961;SDS011;12992;50.884;13.668;2023-01-04T14:37:49;0.65;;;0.63;;
24961;SDS011;12992;50.884;13.668;2023-01-04T14:40:33;0.57;;;0.57;;
24961;SDS011;12992;50.884;13.668;2023-01-04T14:43:01;0.52;;;0.47;;
24961;SDS011;12992;50.884;13.668;2023-01-04T14:45:26;0.55;;;0.50;;
24961;SDS011;12992;50.884;13.668;2023-01-04T14:47:51;0.70;;;0.65;;
24961;SDS011;12992;50.884;13.668;2023-01-04T14:50:16;0.55;;;0.55;;
24961;SDS011;12992;50.884;13.668;2023-01-04T14:52:54;0.70;;;0.60;;
24961;SDS011;12992;50.884;13.668;2023-01-04T14:55:19;0.60;;;0.60;;
24961;SDS011;12992;50.884;13.668;2023-01-04T14:57:47;1.58;;;0.60;;
24961;SDS011;12992;50.884;13.668;2023-01-04T15:00:15;1.75;;;0.47;;
24961;SDS011;12992;50.884;13.668;2023-01-04T15:02:41;0.70;;;0.70;;
24961;SDS011;12992;50.884;13.668;2023-01-04T15:05:09;0.65;;;0.65;;
24961;SDS011;12992;50.884;13.668;2023-01-04T15:07:37;1.25;;;0.47;;
24961;SDS011;12992;50.884;13.668;2023-01-04T15:10:05;0.90;;;0.75;;
24961;SDS011;12992;50.884;13.668;2023-01-04T15:12:41;1.33;;;0.60;;
24961;SDS011;12992;50.884;13.668;2023-01-04T15:15:06;6.82;;;0.75;;
24961;SDS011;12992;50.884;13.668;2023-01-04T15:17:32;1.00;;;0.60;;
24961;SDS011;12992;50.884;13.668;2023-01-04T15:19:58;0.82;;;0.60;;
24961;SDS011;12992;50.884;13.668;2023-01-04T15:22:23;1.15;;;0.80;;
24961;SDS011;12992;50.884;13.668;2023-01-04T15:24:48;0.50;;;0.50;;
24961;SDS011;12992;50.884;13.668;2023-01-04T15:27:13;1.17;;;0.77;;
24961;SDS011;12992;50.884;13.668;2023-01-04T15:29:39;0.80;;;0.80;;
24961;SDS011;12992;50.884;13.668;2023-01-04T15:32:04;0.70;;;0.70;;
24961;SDS011;12992;50.884;13.668;2023-01-04T15:34:29;0.60;;;0.55;;
24961;SDS011;12992;50.884;13.668;2023-01-04T15:36:55;0.70;;;0.70;;
24961;SDS011;12992;50.884;13.668;2023-01-04T15:39:20;0.60;;;0.60;;
24961;SDS011;12992;50.884;13.668;2023-01-04T15:41:45;1.20;;;0.70;;
24961;SDS011;12992;50.884;13.668;2023-01-04T15:44:29;1.13;;;0.60;;
24961;SDS011;12992;50.884;13.668;2023-01-04T15:46:54;0.70;;;0.70;;
24961;SDS011;12992;50.884;13.668;2023-01-04T15:49:20;0.70;;;0.70;;
24961;SDS011;12992;50.884;13.668;2023-01-04T15:51:45;0.95;;;0.65;;
24961;SDS011;12992;50.884;13.668;2023-01-04T15:54:10;0.60;;;0.60;;
24961;SDS011;12992;50.884;13.668;2023-01-04T15:56:36;0.85;;;0.75;;
24961;SDS011;12992;50.884;13.668;2023-01-04T15:59:01;0.60;;;0.60;;
24961;SDS011;12992;50.884;13.668;2023-01-04T16:01:27;1.08;;;0.77;;
24961;SDS011;12992;50.884;13.668;2023-01-04T16:03:52;0.65;;;0.65;;
24961;SDS011;12992;50.884;13.668;2023-01-04T16:06:17;0.55;;;0.55;;
24961;SDS011;12992;50.884;13.668;2023-01-04T16:08:43;0.70;;;0.70;;
24961;SDS011;12992;50.884;13.668;2023-01-04T16:11:12;0.75;;;0.63;;
24961;SDS011;12992;50.884;13.668;2023-01-04T16:13:40;1.48;;;0.55;;
24961;SDS011;12992;50.884;13.668;2023-01-04T16:16:06;1.90;;;0.50;;
24961;SDS011;12992;50.884;13.668;2023-01-04T16:18:32;2.03;;;0.70;;
24961;SDS011;12992;50.884;13.668;2023-01-04T16:20:57;1.48;;;0.88;;
24961;SDS011;12992;50.884;13.668;2023-01-04T16:23:23;0.75;;;0.75;;